Time;durP1;ratioP1;P1;durP2;ratioP2;P2;SDS_P1;SDS_P2;PMS_P1;PMS_P2;Temp;Humidity;BMP_temperature;BMP_pressure;BME280_temperature;BME280_humidity;BME280_pressure;Samples;Min_cycle;Max_cycle;Signal;HPM_P1;HPM_P2
2022/12/19 00:00:26;;;;;;;21.17;12.10;;;-1.30;99.90;;;;;;5009270;28;20034;-54
2022/12/19 00:03:13;;;;;;;21.30;13.02;;;-1.20;99.90;;;;;;4996903;28;20041;-57
2022/12/19 00:06:03;;;;;;;17.80;10.98;;;-1.20;99.90;;;;;;4991216;28;20088;-57
2022/12/19 00:08:50;;;;;;;19.00;11.52;;;-1.10;99.90;;;;;;4994464;28;20034;-54
2022/12/19 00:11:37;;;;;;;15.77;10.57;;;-1.10;99.90;;;;;;5011979;28;20033;-55
2022/12/19 00:14:23;;;;;;;18.63;11.30;;;-1.10;99.90;;;;;;5014054;28;20033;-54
2022/12/19 00:17:09;;;;;;;19.05;11.75;;;-1.00;99.90;;;;;;5015066;28;20030;-55
2022/12/19 00:19:55;;;;;;;19.02;10.48;;;-1.10;99.90;;;;;;5013932;28;20121;-56
2022/12/19 00:22:41;;;;;;;19.95;11.00;;;-1.10;99.90;;;;;;5014674;28;20030;-50
2022/12/19 00:25:27;;;;;;;18.40;10.73;;;-1.10;99.90;;;;;;5014602;28;20137;-56
2022/12/19 00:28:13;;;;;;;17.40;10.90;;;-1.10;99.90;;;;;;5010660;28;20022;-58
2022/12/19 00:31:00;;;;;;;17.33;10.10;;;-1.00;99.90;;;;;;5013843;28;20030;-51
2022/12/19 00:33:47;;;;;;;17.73;10.77;;;-1.10;99.90;;;;;;5011468;28;20034;-54
2022/12/19 00:36:33;;;;;;;20.55;10.85;;;-1.00;99.90;;;;;;5008857;28;20113;-53
2022/12/19 00:39:19;;;;;;;21.15;11.45;;;-1.00;99.90;;;;;;5011075;28;20040;-54
2022/12/19 00:42:05;;;;;;;17.95;11.00;;;-1.00;99.90;;;;;;5006051;28;20030;-55
2022/12/19 00:44:51;;;;;;;19.90;11.50;;;-1.00;99.90;;;;;;5003598;28;20030;-56
2022/12/19 00:47:37;;;;;;;19.23;10.90;;;-1.00;99.90;;;;;;5009696;28;20097;-50
2022/12/19 00:50:23;;;;;;;24.67;12.68;;;-1.00;99.90;;;;;;4998085;28;20474;-53
2022/12/19 00:53:09;;;;;;;20.35;12.70;;;-1.00;99.90;;;;;;5011409;28;20033;-54
2022/12/19 00:55:56;;;;;;;22.73;11.93;;;-1.00;99.90;;;;;;5007714;28;20038;-55
2022/12/19 00:58:42;;;;;;;25.58;14.05;;;-1.00;99.90;;;;;;5008914;28;20081;-58
2022/12/19 01:01:31;;;;;;;20.80;12.98;;;-1.00;99.90;;;;;;5005239;28;20074;-57
2022/12/19 01:04:17;;;;;;;20.55;11.80;;;-0.90;99.90;;;;;;5013816;28;20569;-52
2022/12/19 01:07:06;;;;;;;20.30;14.00;;;-1.00;99.90;;;;;;4980066;28;20053;-53
2022/12/19 01:09:52;;;;;;;24.20;12.43;;;-1.00;99.90;;;;;;4996694;28;20401;-54
2022/12/19 01:12:50;;;;;;;21.13;11.55;;;-0.90;99.90;;;;;;5013543;28;20403;-54
2022/12/19 01:15:38;;;;;;;21.77;12.85;;;-1.00;99.90;;;;;;5013066;28;20029;-60
2022/12/19 01:18:30;;;;;;;22.30;13.38;;;-0.90;99.90;;;;;;4999183;28;20033;-57
2022/12/19 01:21:16;;;;;;;20.77;12.73;;;-1.00;99.90;;;;;;4992407;28;20473;-59
2022/12/19 01:24:03;;;;;;;26.40;13.52;;;-1.00;99.90;;;;;;4981263;28;20045;-58
2022/12/19 01:26:49;;;;;;;26.65;14.23;;;-1.00;99.90;;;;;;5012221;28;20064;-59
2022/12/19 01:29:35;;;;;;;23.17;13.30;;;-1.00;99.90;;;;;;5007075;28;20040;-57
2022/12/19 01:32:22;;;;;;;20.70;12.00;;;-0.90;99.90;;;;;;5011022;28;20109;-54
2022/12/19 01:35:08;;;;;;;25.95;13.77;;;-0.90;99.90;;;;;;4991638;28;20048;-53
2022/12/19 01:37:54;;;;;;;24.23;13.95;;;-0.90;99.90;;;;;;4994476;28;20034;-54
2022/12/19 01:40:47;;;;;;;25.67;14.23;;;-0.90;99.90;;;;;;4997833;28;20060;-56
2022/12/19 01:43:57;;;;;;;28.13;14.50;;;-0.90;99.90;;;;;;4996533;28;20682;-56
2022/12/19 01:46:52;;;;;;;21.88;13.13;;;-0.90;99.90;;;;;;5012647;28;20390;-57
2022/12/19 01:49:38;;;;;;;28.20;14.85;;;-0.90;99.90;;;;;;5012083;28;20034;-56
2022/12/19 01:52:24;;;;;;;24.67;13.88;;;-0.90;99.90;;;;;;5011634;28;20414;-54
2022/12/19 01:55:12;;;;;;;26.83;13.98;;;-1.00;99.90;;;;;;5011500;28;20034;-58
2022/12/19 01:57:59;;;;;;;24.98;13.30;;;-0.90;99.90;;;;;;5012404;28;20149;-56
2022/12/19 02:00:45;;;;;;;24.10;14.18;;;-0.90;99.90;;;;;;4993833;28;20075;-54
2022/12/19 02:03:34;;;;;;;26.50;13.45;;;-0.90;99.90;;;;;;4982183;28;20382;-57
2022/12/19 02:06:21;;;;;;;22.50;14.32;;;-0.80;99.90;;;;;;5012948;28;20085;-52
2022/12/19 02:09:08;;;;;;;24.35;13.20;;;-0.80;99.90;;;;;;5011521;28;20033;-55
2022/12/19 02:11:53;;;;;;;26.02;14.48;;;-0.80;99.90;;;;;;5012047;28;20060;-56
2022/12/19 02:14:40;;;;;;;25.75;14.05;;;-0.80;99.90;;;;;;4997212;28;20022;-51
2022/12/19 02:17:45;;;;;;;28.33;14.13;;;-0.80;99.90;;;;;;5011708;28;20029;-52
2022/12/19 02:20:45;;;;;;;27.05;14.32;;;-0.70;99.90;;;;;;5012190;28;20026;-46
2022/12/19 02:23:46;;;;;;;22.63;13.43;;;-0.70;99.90;;;;;;4991695;28;20049;-47
2022/12/19 02:26:43;;;;;;;24.27;14.27;;;-0.80;99.90;;;;;;4997334;28;20033;-56
2022/12/19 02:29:51;;;;;;;23.75;13.82;;;-0.70;99.90;;;;;;5012466;28;20025;-47
2022/12/19 02:32:45;;;;;;;23.35;13.25;;;-0.70;99.90;;;;;;5011046;28;20030;-49
2022/12/19 02:35:39;;;;;;;24.92;13.63;;;-0.70;99.90;;;;;;5012098;28;20030;-47
2022/12/19 02:38:33;;;;;;;24.48;13.25;;;-0.70;99.90;;;;;;5011539;28;20034;-49
2022/12/19 02:41:42;;;;;;;24.13;12.43;;;-0.70;99.90;;;;;;5011696;28;20132;-54
2022/12/19 02:44:34;;;;;;;20.92;12.35;;;-0.60;99.90;;;;;;5011983;28;20093;-48
2022/12/19 02:47:20;;;;;;;26.40;12.38;;;-0.60;99.90;;;;;;5012387;28;20022;-47
2022/12/19 02:50:08;;;;;;;22.15;11.23;;;-0.60;99.90;;;;;;5010932;28;20522;-56
2022/12/19 02:52:54;;;;;;;20.98;11.38;;;-0.50;99.90;;;;;;5011826;28;20038;-49
2022/12/19 02:56:12;;;;;;;21.77;11.65;;;-0.50;99.90;;;;;;5012379;28;20537;-51
2022/12/19 02:59:18;;;;;;;22.67;12.38;;;-0.50;99.90;;;;;;4998176;28;20034;-50
2022/12/19 03:02:12;;;;;;;23.10;12.63;;;-0.50;99.90;;;;;;5011490;28;20030;-48
2022/12/19 03:05:21;;;;;;;22.98;12.82;;;-0.50;99.90;;;;;;5015026;28;20032;-50
2022/12/19 03:08:31;;;;;;;22.23;12.73;;;-0.50;99.90;;;;;;5014033;28;20038;-48
2022/12/19 03:11:20;;;;;;;23.55;13.00;;;-0.50;99.90;;;;;;5012518;28;20042;-50
2022/12/19 03:14:10;;;;;;;23.55;13.32;;;-0.50;99.90;;;;;;4997363;28;20468;-51
2022/12/19 03:16:57;;;;;;;22.77;12.93;;;-0.50;99.90;;;;;;5023776;28;20096;-56
2022/12/19 03:19:44;;;;;;;24.95;13.77;;;-0.50;99.90;;;;;;5005480;28;20046;-48
2022/12/19 03:22:30;;;;;;;21.98;12.27;;;-0.50;99.90;;;;;;4993782;28;20022;-51
2022/12/19 03:25:19;;;;;;;24.63;14.30;;;-0.50;99.90;;;;;;4997337;28;20018;-53
2022/12/19 03:28:14;;;;;;;22.40;12.32;;;-0.50;99.90;;;;;;4983701;28;20033;-49
2022/12/19 03:31:02;;;;;;;22.98;13.40;;;-0.40;99.90;;;;;;5011369;28;20045;-51
2022/12/19 03:33:55;;;;;;;22.52;12.57;;;-0.40;99.90;;;;;;5010739;28;20101;-49
2022/12/19 03:36:45;;;;;;;24.48;12.80;;;-0.40;99.90;;;;;;5011076;28;20037;-52
2022/12/19 03:39:32;;;;;;;24.27;12.88;;;-0.30;99.90;;;;;;5010393;28;20574;-49
2022/12/19 03:45:42;;;;;;;27.10;14.27;;;-0.30;99.90;;;;;;5012118;28;20038;-59
2022/12/19 03:48:50;;;;;;;20.55;13.15;;;-0.20;99.90;;;;;;4997924;28;20104;-58
2022/12/19 03:51:57;;;;;;;17.50;11.38;;;-0.20;99.90;;;;;;5008441;28;20037;-47
2022/12/19 03:54:58;;;;;;;21.33;12.63;;;-0.20;99.90;;;;;;5009910;28;20038;-54
2022/12/19 03:57:55;;;;;;;19.58;12.38;;;-0.20;99.90;;;;;;5011138;28;20025;-49
2022/12/19 04:00:47;;;;;;;19.30;11.70;;;-0.10;99.90;;;;;;5010747;28;20022;-56
2022/12/19 04:03:34;;;;;;;21.15;11.60;;;-0.10;99.90;;;;;;5007620;28;20525;-51
2022/12/19 04:06:21;;;;;;;21.70;12.02;;;0.00;99.90;;;;;;5010785;28;20030;-48
2022/12/19 04:09:07;;;;;;;17.88;11.32;;;0.00;99.90;;;;;;5010224;28;20045;-55
2022/12/19 04:12:01;;;;;;;21.00;11.25;;;0.00;99.90;;;;;;5010338;28;20402;-57
2022/12/19 04:14:48;;;;;;;21.33;11.93;;;0.10;99.90;;;;;;5003011;28;20060;-53
2022/12/19 04:17:51;;;;;;;24.40;14.55;;;0.10;99.90;;;;;;5009254;28;20507;-49
2022/12/19 04:20:43;;;;;;;21.45;10.98;;;0.00;99.90;;;;;;5011040;28;20026;-47
2022/12/19 04:23:33;;;;;;;21.10;11.70;;;0.10;99.90;;;;;;4991064;28;20034;-53
2022/12/19 04:26:21;;;;;;;16.95;11.15;;;0.00;99.90;;;;;;5006712;28;20030;-46
2022/12/19 04:29:10;;;;;;;16.35;10.73;;;0.10;99.90;;;;;;5009892;28;20054;-48
2022/12/19 04:31:56;;;;;;;16.02;9.60;;;0.10;99.90;;;;;;4993795;28;20088;-56
2022/12/19 04:34:42;;;;;;;19.23;10.27;;;0.20;99.90;;;;;;5009544;28;20580;-51
2022/12/19 04:37:29;;;;;;;23.02;14.35;;;0.20;99.90;;;;;;5010600;28;20062;-55
2022/12/19 04:40:15;;;;;;;18.35;10.65;;;0.20;99.90;;;;;;5010293;28;20034;-47
2022/12/19 04:43:01;;;;;;;17.88;9.90;;;0.20;99.90;;;;;;5010703;28;20025;-46
2022/12/19 04:45:47;;;;;;;18.30;10.15;;;0.30;99.90;;;;;;5009883;28;20040;-48
2022/12/19 04:48:35;;;;;;;17.85;10.40;;;0.30;99.90;;;;;;4996108;28;20022;-48
2022/12/19 04:51:21;;;;;;;16.55;10.13;;;0.40;99.90;;;;;;5010102;28;20040;-54
2022/12/19 04:54:07;;;;;;;19.75;10.95;;;0.30;99.90;;;;;;5010178;28;20044;-56
2022/12/19 04:56:53;;;;;;;19.98;11.13;;;0.20;99.90;;;;;;5010136;28;20026;-46
2022/12/19 04:59:39;;;;;;;19.35;10.98;;;0.20;99.90;;;;;;5013944;28;20382;-49
2022/12/19 05:02:25;;;;;;;17.88;10.40;;;0.30;99.90;;;;;;5013045;28;20026;-50
2022/12/19 05:05:11;;;;;;;18.15;11.63;;;0.30;99.90;;;;;;5013306;28;20639;-51
2022/12/19 05:07:56;;;;;;;18.02;11.00;;;0.30;99.90;;;;;;5013424;28;20037;-56
2022/12/19 05:10:42;;;;;;;20.77;10.98;;;0.40;99.90;;;;;;5013073;28;20041;-56
2022/12/19 05:13:29;;;;;;;19.30;10.55;;;0.40;99.90;;;;;;5012903;28;20038;-53
2022/12/19 05:16:15;;;;;;;17.52;10.07;;;0.50;99.90;;;;;;5012564;28;20042;-49
2022/12/19 05:19:01;;;;;;;19.63;10.63;;;0.50;99.90;;;;;;5013066;28;20183;-56
2022/12/19 05:21:47;;;;;;;18.45;10.52;;;0.50;99.90;;;;;;5012916;28;20046;-49
2022/12/19 05:24:32;;;;;;;17.00;10.45;;;0.50;99.90;;;;;;5013605;28;20029;-52
2022/12/19 05:27:18;;;;;;;20.75;12.43;;;0.50;99.90;;;;;;5012804;28;20026;-54
2022/12/19 05:30:05;;;;;;;17.48;10.90;;;0.50;99.90;;;;;;5011764;28;20026;-52
2022/12/19 05:32:51;;;;;;;16.75;10.38;;;0.60;99.90;;;;;;5012160;28;20116;-50
2022/12/19 05:35:37;;;;;;;18.98;11.18;;;0.60;99.90;;;;;;5012949;28;20033;-57
2022/12/19 05:38:24;;;;;;;20.23;11.50;;;0.60;99.90;;;;;;5011693;28;20061;-49
2022/12/19 05:41:19;;;;;;;20.05;12.27;;;0.60;99.90;;;;;;5012397;28;20112;-50
2022/12/19 05:44:05;;;;;;;;;;;0.70;99.90;;;;;;5013375;28;20026;-48
2022/12/19 05:46:51;;;;;;;18.50;10.88;;;0.70;99.90;;;;;;5013624;28;20007;-56
2022/12/19 05:49:40;;;;;;;24.30;12.63;;;0.70;99.90;;;;;;4984779;28;20053;-57
2022/12/19 05:52:26;;;;;;;21.63;12.77;;;0.60;99.90;;;;;;5012105;28;20065;-52
2022/12/19 05:55:12;;;;;;;20.02;12.10;;;0.60;99.90;;;;;;5012129;28;20034;-53
2022/12/19 05:57:58;;;;;;;19.52;12.27;;;0.60;99.90;;;;;;5012961;28;20034;-55
2022/12/19 06:00:44;;;;;;;20.92;11.80;;;0.60;99.90;;;;;;5012096;28;20513;-57
2022/12/19 06:03:30;;;;;;;21.27;12.48;;;0.60;99.90;;;;;;5011629;28;20038;-50
2022/12/19 06:06:19;;;;;;;23.40;14.30;;;0.60;99.90;;;;;;5011899;28;20443;-52
2022/12/19 06:09:04;;;;;;;25.25;13.82;;;0.60;99.90;;;;;;4996491;28;20109;-52
2022/12/19 06:11:50;;;;;;;22.80;13.82;;;0.70;99.90;;;;;;4996354;28;20558;-56
2022/12/19 06:14:36;;;;;;;24.17;13.50;;;0.70;99.90;;;;;;5011987;28;20421;-54
2022/12/19 06:17:22;;;;;;;22.88;14.80;;;0.70;99.90;;;;;;5012353;28;20645;-55
2022/12/19 06:20:09;;;;;;;23.88;14.02;;;0.70;99.90;;;;;;5011940;28;20045;-55
2022/12/19 06:22:55;;;;;;;23.92;13.88;;;0.70;99.90;;;;;;5012029;28;20451;-57
2022/12/19 06:25:41;;;;;;;23.52;13.10;;;0.70;99.90;;;;;;4997536;28;20044;-51
2022/12/19 06:28:28;;;;;;;23.30;14.02;;;0.70;99.90;;;;;;5011574;28;20434;-55
2022/12/19 06:31:15;;;;;;;26.92;14.25;;;0.70;99.90;;;;;;5011703;28;20053;-50
2022/12/19 06:34:01;;;;;;;22.95;13.40;;;0.70;99.90;;;;;;5011656;28;20037;-56
2022/12/19 06:36:47;;;;;;;23.95;13.60;;;0.70;99.90;;;;;;5009227;28;20038;-55
2022/12/19 06:39:33;;;;;;;26.92;16.33;;;0.70;99.90;;;;;;5011028;28;20037;-54
2022/12/19 06:42:21;;;;;;;24.83;14.73;;;0.70;99.90;;;;;;5008515;28;20057;-49
2022/12/19 06:45:08;;;;;;;27.45;13.43;;;0.70;99.90;;;;;;5012132;28;20053;-61
2022/12/19 06:47:54;;;;;;;25.02;14.15;;;0.70;99.90;;;;;;5010781;28;20033;-52
2022/12/19 06:50:40;;;;;;;26.55;14.52;;;0.70;99.90;;;;;;5011201;28;20034;-60
2022/12/19 06:53:27;;;;;;;24.88;13.75;;;0.80;99.90;;;;;;4992075;28;20042;-50
2022/12/19 06:56:14;;;;;;;25.33;13.10;;;0.80;99.90;;;;;;4995131;28;20105;-50
2022/12/19 06:59:00;;;;;;;42.70;22.55;;;0.90;99.90;;;;;;4996387;28;20029;-56
2022/12/19 07:02:13;;;;;;;25.80;14.18;;;1.00;99.90;;;;;;5010168;28;20490;-51
2022/12/19 07:05:05;;;;;;;28.45;12.68;;;1.10;99.90;;;;;;5010304;28;20030;-52
2022/12/19 07:07:51;;;;;;;22.30;12.75;;;1.20;99.90;;;;;;5010817;28;20028;-50
2022/12/19 07:10:37;;;;;;;26.50;15.30;;;1.10;99.90;;;;;;5010859;28;20041;-53
2022/12/19 07:13:23;;;;;;;23.00;13.57;;;1.20;99.90;;;;;;5009843;28;20030;-52
2022/12/19 07:16:09;;;;;;;18.40;11.65;;;1.20;99.90;;;;;;4996260;28;20398;-47
2022/12/19 07:18:55;;;;;;;21.48;12.55;;;1.20;99.90;;;;;;4994545;28;20037;-53
2022/12/19 07:21:41;;;;;;;20.55;12.38;;;1.30;99.90;;;;;;5010625;28;20037;-53
2022/12/19 07:24:28;;;;;;;20.45;13.00;;;1.40;99.90;;;;;;5010685;28;20030;-64
2022/12/19 07:27:14;;;;;;;20.58;11.95;;;1.40;99.90;;;;;;4999590;28;20486;-48
2022/12/19 07:30:00;;;;;;;20.20;11.68;;;1.50;99.90;;;;;;5011077;28;20040;-47
2022/12/19 07:32:46;;;;;;;19.52;11.80;;;1.50;99.90;;;;;;4995616;28;20025;-48
2022/12/19 07:35:32;;;;;;;19.13;11.98;;;1.60;99.90;;;;;;5011529;28;20030;-48
2022/12/19 07:38:18;;;;;;;19.50;12.07;;;1.60;99.90;;;;;;5011524;28;20494;-47
2022/12/19 07:41:04;;;;;;;20.65;11.63;;;1.70;99.90;;;;;;5010961;28;20062;-47
2022/12/19 07:43:53;;;;;;;21.80;13.90;;;1.80;99.90;;;;;;4988173;28;20037;-53
2022/12/19 07:46:38;;;;;;;20.80;12.35;;;1.70;99.90;;;;;;4997934;28;20045;-48
2022/12/19 07:49:24;;;;;;;19.55;11.65;;;1.80;99.90;;;;;;5010469;28;20034;-47
2022/12/19 07:52:10;;;;;;;18.48;12.13;;;1.70;99.90;;;;;;5009615;28;20721;-49
2022/12/19 07:54:56;;;;;;;26.95;14.25;;;1.70;99.90;;;;;;5010862;28;20019;-47
2022/12/19 07:57:42;;;;;;;20.88;13.68;;;1.70;99.90;;;;;;5010471;28;20018;-52
2022/12/19 08:00:30;;;;;;;21.55;13.13;;;1.70;99.90;;;;;;5010506;28;20026;-52
2022/12/19 08:03:16;;;;;;;21.88;13.48;;;1.60;99.90;;;;;;5010955;28;20034;-51
2022/12/19 08:06:04;;;;;;;26.10;13.65;;;1.70;99.90;;;;;;5010966;28;20030;-47
2022/12/19 08:08:50;;;;;;;22.10;13.13;;;1.70;99.90;;;;;;5010897;28;20018;-51
2022/12/19 08:11:36;;;;;;;32.92;13.95;;;1.70;99.90;;;;;;5002167;28;20068;-45
2022/12/19 08:14:21;;;;;;;22.40;13.80;;;1.70;99.90;;;;;;5002441;28;20490;-53
2022/12/19 08:17:08;;;;;;;24.50;14.95;;;1.80;99.90;;;;;;4995691;28;20037;-49
2022/12/19 08:19:54;;;;;;;23.48;13.95;;;1.80;99.90;;;;;;5010862;28;20042;-52
2022/12/19 08:22:40;;;;;;;22.60;14.38;;;1.80;99.90;;;;;;5008387;28;20120;-50
2022/12/19 08:25:26;;;;;;;25.05;14.80;;;1.80;99.90;;;;;;5009572;28;20152;-51
2022/12/19 08:28:12;;;;;;;26.20;16.48;;;1.80;99.90;;;;;;5008911;28;20042;-51
2022/12/19 08:31:04;;;;;;;22.33;13.60;;;1.80;99.90;;;;;;4994719;28;20091;-49
2022/12/19 08:33:51;;;;;;;24.30;14.48;;;1.70;99.90;;;;;;5013085;28;20032;-53
2022/12/19 08:36:38;;;;;;;29.70;14.55;;;1.70;99.90;;;;;;5012220;28;20038;-54
2022/12/19 08:39:24;;;;;;;27.40;14.93;;;1.70;99.90;;;;;;5014137;28;20186;-50
2022/12/19 08:42:10;;;;;;;28.95;17.50;;;1.70;99.90;;;;;;5012295;28;20506;-50
2022/12/19 08:44:55;;;;;;;30.65;16.48;;;1.70;99.90;;;;;;5011821;28;20486;-55
2022/12/19 08:47:42;;;;;;;31.05;15.65;;;1.70;99.90;;;;;;5011778;28;20379;-58
2022/12/19 08:50:28;;;;;;;30.50;17.40;;;1.60;99.90;;;;;;5009769;28;20112;-48
2022/12/19 08:53:14;;;;;;;30.15;17.10;;;1.60;99.90;;;;;;5010297;28;20470;-51
2022/12/19 08:56:08;;;;;;;28.85;15.45;;;1.70;99.90;;;;;;5014184;28;20526;-54
2022/12/19 08:58:54;;;;;;;27.58;17.20;;;1.60;99.90;;;;;;5003543;28;20489;-55
2022/12/19 09:01:40;;;;;;;26.85;17.35;;;1.60;99.90;;;;;;5013336;28;20030;-56
2022/12/19 09:04:27;;;;;;;28.48;17.67;;;1.60;99.90;;;;;;5013411;28;20076;-53
2022/12/19 09:07:13;;;;;;;37.70;22.00;;;1.60;99.90;;;;;;5012354;28;20026;-52
2022/12/19 09:09:59;;;;;;;33.47;19.00;;;1.50;99.90;;;;;;5013520;28;20034;-56
2022/12/19 09:12:45;;;;;;;32.97;19.55;;;1.50;99.90;;;;;;5013264;28;20098;-56
2022/12/19 09:15:31;;;;;;;31.60;18.73;;;1.50;99.90;;;;;;5012459;28;20037;-58
2022/12/19 09:18:17;;;;;;;30.85;18.95;;;1.40;99.90;;;;;;5014458;28;20026;-56
2022/12/19 09:21:03;;;;;;;36.67;18.90;;;1.40;99.90;;;;;;5011998;28;20304;-58
2022/12/19 09:23:51;;;;;;;33.80;18.77;;;1.40;99.90;;;;;;5014646;28;20030;-56
2022/12/19 09:26:38;;;;;;;35.80;20.45;;;1.40;99.90;;;;;;5011336;28;20022;-54
2022/12/19 09:29:24;;;;;;;35.22;19.98;;;1.40;99.90;;;;;;5011896;28;20026;-57
2022/12/19 09:32:10;;;;;;;38.22;20.20;;;1.40;99.90;;;;;;5010150;28;20580;-54
2022/12/19 09:34:56;;;;;;;34.47;20.00;;;1.30;99.90;;;;;;4993914;28;20031;-57
2022/12/19 09:37:42;;;;;;;34.72;19.95;;;1.30;99.90;;;;;;4994632;28;20023;-57
2022/12/19 09:40:42;;;;;;;38.63;21.10;;;1.30;99.90;;;;;;4991720;28;20047;-57
2022/12/19 09:43:39;;;;;;;39.35;21.85;;;1.40;99.90;;;;;;4992726;28;20139;-59
2022/12/19 09:46:42;;;;;;;32.85;19.60;;;1.40;99.90;;;;;;4993841;28;20027;-58
2022/12/19 09:49:42;;;;;;;35.67;19.58;;;1.40;99.90;;;;;;4980334;28;20027;-60
2022/12/19 09:52:30;;;;;;;33.28;20.63;;;1.40;99.90;;;;;;4992967;28;20049;-60
2022/12/19 09:55:39;;;;;;;36.88;20.30;;;1.40;99.90;;;;;;4992836;28;20065;-62
2022/12/19 09:58:50;;;;;;;33.05;18.48;;;1.40;99.90;;;;;;4993614;28;20026;-59
2022/12/19 10:01:52;;;;;;;33.67;19.60;;;1.40;99.90;;;;;;4998608;28;20029;-57
2022/12/19 10:04:47;;;;;;;36.97;18.92;;;1.40;99.90;;;;;;5002578;28;20038;-57
2022/12/19 10:07:33;;;;;;;;;;;1.40;99.90;;;;;;5001814;28;20470;-55
2022/12/19 10:10:37;;;;;;;33.30;18.65;;;1.40;99.90;;;;;;5009733;28;20278;-60
2022/12/19 10:13:38;;;;;;;35.75;19.48;;;1.40;99.90;;;;;;5011938;28;20069;-62
2022/12/19 10:16:53;;;;;;;36.92;19.20;;;1.40;99.90;;;;;;5009625;28;20657;-62
2022/12/19 10:19:52;;;;;;;31.13;18.75;;;1.50;99.90;;;;;;4972102;28;20045;-62
2022/12/19 10:22:44;;;;;;;35.63;19.92;;;1.50;99.90;;;;;;4995811;28;20014;-61
2022/12/19 10:25:50;;;;;;;36.33;19.52;;;1.50;99.90;;;;;;5007133;28;20116;-62
2022/12/19 10:28:54;;;;;;;;;;;1.60;99.90;;;;;;5009860;28;20021;-58
2022/12/19 10:31:44;;;;;;;34.83;18.85;;;1.60;99.90;;;;;;5004878;28;20395;-61
2022/12/19 10:34:39;;;;;;;38.60;21.20;;;1.70;99.90;;;;;;5005696;28;20372;-61
2022/12/19 10:37:45;;;;;;;40.47;21.27;;;1.70;99.90;;;;;;4993441;28;20031;-60
2022/12/19 10:40:38;;;;;;;37.30;19.60;;;1.70;99.90;;;;;;5003070;28;20030;-57
2022/12/19 10:43:47;;;;;;;36.70;21.42;;;1.70;99.90;;;;;;4996145;28;20057;-59
2022/12/19 10:46:47;;;;;;;36.10;20.42;;;1.80;99.90;;;;;;5009801;28;20022;-59
2022/12/19 10:49:33;;;;;;;38.63;21.30;;;1.80;99.90;;;;;;4996608;28;20085;-60
2022/12/19 10:52:47;;;;;;;55.00;28.88;;;1.90;99.90;;;;;;4990258;28;20582;-61
2022/12/19 10:55:57;;;;;;;42.50;22.70;;;1.90;99.90;;;;;;5006358;28;20081;-61
2022/12/19 10:58:43;;;;;;;37.15;20.33;;;1.90;99.90;;;;;;5006270;28;20030;-65
2022/12/19 11:01:33;;;;;;;41.08;21.60;;;2.00;99.90;;;;;;4981077;28;20026;-64
2022/12/19 11:04:32;;;;;;;34.50;21.02;;;2.00;99.90;;;;;;4996988;28;20018;-58
2022/12/19 11:07:20;;;;;;;36.10;21.42;;;2.00;99.90;;;;;;5001891;28;20058;-56
2022/12/19 11:10:55;;;;;;;36.65;21.67;;;2.00;99.90;;;;;;5010853;28;20482;-61
2022/12/19 11:13:46;;;;;;;34.95;20.83;;;2.20;99.90;;;;;;5000317;28;20042;-58
2022/12/19 11:16:36;;;;;;;38.58;22.85;;;2.20;99.90;;;;;;4991964;28;20022;-58
2022/12/19 11:19:36;;;;;;;32.10;19.73;;;2.10;99.90;;;;;;4992391;28;20113;-57
2022/12/19 11:22:28;;;;;;;37.25;22.05;;;2.20;99.90;;;;;;4991598;28;20030;-60
2022/12/19 11:25:21;;;;;;;32.72;20.13;;;2.30;99.90;;;;;;5002014;28;20014;-56
2022/12/19 11:28:23;;;;;;;34.00;19.67;;;2.30;99.90;;;;;;4995313;28;20029;-61
2022/12/19 11:31:18;;;;;;;33.75;21.50;;;2.40;99.90;;;;;;4992744;28;20050;-54
2022/12/19 11:34:12;;;;;;;33.88;20.77;;;2.40;99.90;;;;;;5003472;28;20061;-59
2022/12/19 11:37:20;;;;;;;37.13;21.30;;;2.40;99.90;;;;;;5001935;28;20430;-60
2022/12/19 11:40:19;;;;;;;39.65;22.08;;;2.40;99.90;;;;;;5002907;28;20069;-55
2022/12/19 11:43:12;;;;;;;33.95;20.60;;;2.50;99.90;;;;;;5005519;28;20494;-59
2022/12/19 11:46:25;;;;;;;32.65;19.65;;;2.50;99.90;;;;;;5006065;28;20034;-59
2022/12/19 11:49:34;;;;;;;34.97;20.95;;;2.50;99.90;;;;;;5004853;28;20049;-55
2022/12/19 11:52:41;;;;;;;36.47;21.30;;;2.50;99.90;;;;;;5009541;28;20026;-58
2022/12/19 11:55:35;;;;;;;33.08;19.23;;;2.60;99.90;;;;;;5010422;28;20586;-62
2022/12/19 11:58:27;;;;;;;30.27;19.67;;;2.60;99.90;;;;;;5011690;28;20030;-58
2022/12/19 12:01:48;;;;;;;35.60;20.05;;;2.70;99.90;;;;;;5010335;28;20033;-60
2022/12/19 12:04:50;;;;;;;31.83;21.50;;;2.80;99.90;;;;;;5003032;28;20034;-57
2022/12/19 12:07:38;;;;;;;35.00;20.67;;;2.80;99.90;;;;;;5002292;28;20022;-58
2022/12/19 12:10:24;;;;;;;33.50;21.33;;;2.80;99.90;;;;;;5013506;28;20044;-59
2022/12/19 12:13:30;;;;;;;32.47;20.30;;;2.80;99.90;;;;;;5010430;28;20153;-60
2022/12/19 12:16:17;;;;;;;35.63;21.17;;;2.80;99.90;;;;;;5012456;28;20498;-61
2022/12/19 12:19:39;;;;;;;34.20;20.92;;;2.80;99.90;;;;;;5005429;28;20030;-59
2022/12/19 12:22:43;;;;;;;35.70;20.45;;;2.90;99.90;;;;;;4995381;28;20021;-61
2022/12/19 12:25:52;;;;;;;35.45;20.35;;;2.90;99.90;;;;;;5009144;28;20029;-60
2022/12/19 12:28:49;;;;;;;33.70;20.60;;;2.90;99.90;;;;;;5016967;28;20033;-58
2022/12/19 12:31:43;;;;;;;30.23;18.70;;;2.80;99.90;;;;;;5012850;28;20529;-57
2022/12/19 12:34:47;;;;;;;30.95;18.58;;;2.90;99.90;;;;;;5015088;28;20505;-58
2022/12/19 12:37:57;;;;;;;34.33;20.45;;;2.90;99.90;;;;;;5014796;28;20398;-60
2022/12/19 12:41:10;;;;;;;32.42;19.50;;;2.90;99.90;;;;;;5014620;28;20478;-60
2022/12/19 12:44:10;;;;;;;32.83;21.10;;;2.90;99.90;;;;;;5014611;28;20029;-58
2022/12/19 12:47:21;;;;;;;34.47;22.35;;;2.90;99.90;;;;;;5014655;28;20024;-57
2022/12/19 12:50:16;;;;;;;32.35;20.73;;;3.00;99.90;;;;;;5014314;28;20049;-60
2022/12/19 12:53:07;;;;;;;34.38;20.95;;;3.10;99.90;;;;;;5014191;28;20037;-58
2022/12/19 12:55:55;;;;;;;33.65;20.60;;;3.00;99.90;;;;;;5014961;28;20442;-60
2022/12/19 12:58:47;;;;;;;35.47;21.85;;;3.10;99.90;;;;;;5014247;28;20033;-60
2022/12/19 13:01:40;;;;;;;33.42;20.60;;;3.10;99.90;;;;;;5013997;28;20026;-60
2022/12/19 13:04:39;;;;;;;34.60;21.77;;;3.10;99.90;;;;;;4998420;28;20050;-59
2022/12/19 13:07:34;;;;;;;34.78;21.85;;;3.20;99.90;;;;;;5014354;28;20504;-59
2022/12/19 13:10:29;;;;;;;38.28;22.42;;;3.10;99.90;;;;;;5013820;28;20030;-61
2022/12/19 13:13:15;;;;;;;36.05;22.50;;;3.10;99.90;;;;;;4999359;28;20030;-61
2022/12/19 13:16:39;;;;;;;40.30;24.48;;;3.20;99.90;;;;;;5012874;28;20038;-60
2022/12/19 13:19:26;;;;;;;39.28;23.70;;;3.10;99.90;;;;;;5013384;28;20030;-61
2022/12/19 13:22:16;;;;;;;37.53;22.63;;;3.10;99.90;;;;;;5013517;28;20517;-60
2022/12/19 13:25:25;;;;;;;39.35;22.38;;;3.20;99.90;;;;;;5014384;28;20025;-62
2022/12/19 13:28:19;;;;;;;36.33;21.88;;;3.20;99.90;;;;;;5014042;28;20022;-58
2022/12/19 13:31:06;;;;;;;34.45;23.33;;;3.20;99.90;;;;;;5013663;28;20109;-59
2022/12/19 13:33:52;;;;;;;34.38;21.40;;;3.30;99.90;;;;;;5011903;28;20026;-60
2022/12/19 13:37:03;;;;;;;41.25;23.20;;;3.20;99.90;;;;;;5013895;28;20108;-63
2022/12/19 13:39:51;;;;;;;40.55;24.33;;;3.20;99.90;;;;;;5014830;28;20025;-54
2022/12/19 13:45:53;;;;;;;36.47;21.52;;;3.20;99.90;;;;;;5014410;28;20034;-58
2022/12/19 13:48:44;;;;;;;35.65;21.17;;;3.20;99.90;;;;;;4997727;28;20490;-57
2022/12/19 13:51:41;;;;;;;36.25;22.45;;;3.20;99.90;;;;;;5013413;28;20490;-59
2022/12/19 13:54:33;;;;;;;39.72;21.52;;;3.20;99.90;;;;;;4998339;28;20482;-59
2022/12/19 13:57:30;;;;;;;38.50;23.58;;;3.20;99.90;;;;;;5013661;28;20052;-58
2022/12/19 14:00:18;;;;;;;39.63;23.75;;;3.20;99.90;;;;;;4997944;28;20553;-60
2022/12/19 14:03:17;;;;;;;37.40;23.48;;;3.20;99.90;;;;;;5012430;28;20079;-62
2022/12/19 14:06:28;;;;;;;42.78;27.13;;;3.20;99.90;;;;;;5005707;28;20046;-59
2022/12/19 14:09:22;;;;;;;40.15;24.23;;;3.30;99.90;;;;;;5011596;28;20141;-57
2022/12/19 14:15:34;;;;;;;34.13;21.83;;;3.30;99.90;;;;;;5004138;28;20722;-60
2022/12/19 14:18:26;;;;;;;42.78;24.38;;;3.30;99.90;;;;;;5011897;28;20033;-56
2022/12/19 14:21:16;;;;;;;40.08;24.45;;;3.40;99.90;;;;;;4997360;28;20032;-55
2022/12/19 14:24:09;;;;;;;34.95;22.67;;;3.40;99.90;;;;;;5004367;28;20033;-59
2022/12/19 14:27:00;;;;;;;36.47;24.08;;;3.40;99.90;;;;;;5009920;28;20030;-56
2022/12/19 14:29:52;;;;;;;36.15;23.30;;;3.40;99.90;;;;;;5012195;28;20037;-57
2022/12/19 14:32:38;;;;;;;34.95;21.92;;;3.40;99.90;;;;;;5012052;28;20034;-56
2022/12/19 14:35:33;;;;;;;39.30;24.08;;;3.40;99.90;;;;;;5013835;28;20080;-58
2022/12/19 14:38:24;;;;;;;38.45;23.73;;;3.40;99.90;;;;;;5012006;28;20494;-59
2022/12/19 14:44:46;;;;;;;33.30;22.02;;;3.60;99.90;;;;;;5009971;28;20054;-60
2022/12/19 14:47:40;;;;;;;33.67;20.15;;;3.60;99.90;;;;;;5012359;28;20026;-57
2022/12/19 14:50:33;;;;;;;34.90;21.52;;;3.70;99.90;;;;;;5011783;28;20034;-59
2022/12/19 14:53:21;;;;;;;34.35;20.42;;;3.70;99.90;;;;;;5011687;28;20069;-57